sensor_id;sensor_type;location;lat;lon;timestamp;temperature;humidity
27409;DHT22;20413;50.782;7.152;2022-12-11T00:02:11;1.30;99.90
27409;DHT22;20413;50.782;7.152;2022-12-11T00:04:37;1.30;99.90
27409;DHT22;20413;50.782;7.152;2022-12-11T00:07:02;1.30;99.90
27409;DHT22;20413;50.782;7.152;2022-12-11T00:09:28;1.30;99.90
27409;DHT22;20413;50.782;7.152;2022-12-11T00:11:55;1.30;99.90
27409;DHT22;20413;50.782;7.152;2022-12-11T00:14:20;1.30;99.90
27409;DHT22;20413;50.782;7.152;2022-12-11T00:16:47;1.20;99.90
27409;DHT22;20413;50.782;7.152;2022-12-11T00:19:14;1.30;99.90
27409;DHT22;20413;50.782;7.152;2022-12-11T00:21:39;1.30;99.90
27409;DHT22;20413;50.782;7.152;2022-12-11T00:24:05;1.30;99.90
27409;DHT22;20413;50.782;7.152;2022-12-11T00:26:30;1.30;99.90
27409;DHT22;20413;50.782;7.152;2022-12-11T00:28:56;1.30;99.90
27409;DHT22;20413;50.782;7.152;2022-12-11T00:31:22;1.30;99.90
27409;DHT22;20413;50.782;7.152;2022-12-11T00:33:49;1.30;99.90
27409;DHT22;20413;50.782;7.152;2022-12-11T00:36:23;1.30;99.90
27409;DHT22;20413;50.782;7.152;2022-12-11T00:38:49;1.30;99.90
27409;DHT22;20413;50.782;7.152;2022-12-11T00:41:16;1.30;99.90
27409;DHT22;20413;50.782;7.152;2022-12-11T00:43:41;1.30;99.90
27409;DHT22;20413;50.782;7.152;2022-12-11T00:46:07;1.30;99.90
27409;DHT22;20413;50.782;7.152;2022-12-11T00:48:33;1.30;99.90
27409;DHT22;20413;50.782;7.152;2022-12-11T00:50:58;1.30;99.90
27409;DHT22;20413;50.782;7.152;2022-12-11T00:53:24;1.40;99.90
27409;DHT22;20413;50.782;7.152;2022-12-11T00:55:50;1.30;99.90
27409;DHT22;20413;50.782;7.152;2022-12-11T00:58:16;1.30;99.90
27409;DHT22;20413;50.782;7.152;2022-12-11T01:00:41;1.30;99.90
27409;DHT22;20413;50.782;7.152;2022-12-11T01:03:09;1.30;99.90
27409;DHT22;20413;50.782;7.152;2022-12-11T01:05:35;1.30;99.90
27409;DHT22;20413;50.782;7.152;2022-12-11T01:08:01;1.30;99.90
27409;DHT22;20413;50.782;7.152;2022-12-11T01:10:27;1.30;99.90
27409;DHT22;20413;50.782;7.152;2022-12-11T01:12:55;1.40;99.90
27409;DHT22;20413;50.782;7.152;2022-12-11T01:15:25;1.40;99.90
27409;DHT22;20413;50.782;7.152;2022-12-11T01:17:51;1.50;99.90
27409;DHT22;20413;50.782;7.152;2022-12-11T01:20:18;1.50;99.90
27409;DHT22;20413;50.782;7.152;2022-12-11T01:22:44;1.50;99.90
27409;DHT22;20413;50.782;7.152;2022-12-11T01:25:10;1.50;99.90
27409;DHT22;20413;50.782;7.152;2022-12-11T01:27:36;1.50;99.90
27409;DHT22;20413;50.782;7.152;2022-12-11T01:30:04;1.50;99.90
27409;DHT22;20413;50.782;7.152;2022-12-11T01:32:31;1.50;99.90
27409;DHT22;20413;50.782;7.152;2022-12-11T01:34:56;1.50;99.90
27409;DHT22;20413;50.782;7.152;2022-12-11T01:37:22;1.50;99.90
27409;DHT22;20413;50.782;7.152;2022-12-11T01:39:47;1.60;99.90
27409;DHT22;20413;50.782;7.152;2022-12-11T01:42:18;1.50;99.90
27409;DHT22;20413;50.782;7.152;2022-12-11T01:47:10;1.60;99.90
27409;DHT22;20413;50.782;7.152;2022-12-11T01:49:36;1.60;99.90
27409;DHT22;20413;50.782;7.152;2022-12-11T01:52:15;1.60;99.90
27409;DHT22;20413;50.782;7.152;2022-12-11T01:54:43;1.60;99.90
27409;DHT22;20413;50.782;7.152;2022-12-11T01:57:10;1.60;99.90
27409;DHT22;20413;50.782;7.152;2022-12-11T01:59:40;1.60;99.90
27409;DHT22;20413;50.782;7.152;2022-12-11T02:02:14;1.60;99.90
27409;DHT22;20413;50.782;7.152;2022-12-11T02:04:42;1.60;99.90
27409;DHT22;20413;50.782;7.152;2022-12-11T02:07:08;1.70;99.90
27409;DHT22;20413;50.782;7.152;2022-12-11T02:09:37;1.70;99.90
27409;DHT22;20413;50.782;7.152;2022-12-11T02:12:09;1.60;99.90
27409;DHT22;20413;50.782;7.152;2022-12-11T02:17:19;1.70;99.90
27409;DHT22;20413;50.782;7.152;2022-12-11T02:22:57;1.70;99.90
27409;DHT22;20413;50.782;7.152;2022-12-11T02:28:48;1.70;99.90
27409;DHT22;20413;50.782;7.152;2022-12-11T02:33:51;1.60;99.90
27409;DHT22;20413;50.782;7.152;2022-12-11T02:36:21;1.60;99.90
27409;DHT22;20413;50.782;7.152;2022-12-11T02:38:50;1.60;99.90
27409;DHT22;20413;50.782;7.152;2022-12-11T02:41:19;1.60;99.90
27409;DHT22;20413;50.782;7.152;2022-12-11T02:43:46;1.60;99.90
27409;DHT22;20413;50.782;7.152;2022-12-11T02:46:13;1.60;99.90
27409;DHT22;20413;50.782;7.152;2022-12-11T02:48:40;1.60;99.90
27409;DHT22;20413;50.782;7.152;2022-12-11T02:51:08;1.60;99.90
27409;DHT22;20413;50.782;7.152;2022-12-11T02:53:37;1.60;99.90
27409;DHT22;20413;50.782;7.152;2022-12-11T02:56:13;1.60;99.90
27409;DHT22;20413;50.782;7.152;2022-12-11T02:58:47;1.60;99.90
27409;DHT22;20413;50.782;7.152;2022-12-11T03:01:15;1.60;99.90
27409;DHT22;20413;50.782;7.152;2022-12-11T03:03:41;1.60;99.90
27409;DHT22;20413;50.782;7.152;2022-12-11T03:06:09;1.60;99.90
27409;DHT22;20413;50.782;7.152;2022-12-11T03:08:36;1.60;99.90
27409;DHT22;20413;50.782;7.152;2022-12-11T03:11:01;1.60;99.90
27409;DHT22;20413;50.782;7.152;2022-12-11T03:13:27;1.60;99.90
27409;DHT22;20413;50.782;7.152;2022-12-11T03:18:48;1.60;99.90
27409;DHT22;20413;50.782;7.152;2022-12-11T03:22:21;1.60;99.90
27409;DHT22;20413;50.782;7.152;2022-12-11T03:24:31;1.60;99.90
27409;DHT22;20413;50.782;7.152;2022-12-11T03:27:02;1.60;99.90
27409;DHT22;20413;50.782;7.152;2022-12-11T03:29:35;1.60;99.90
27409;DHT22;20413;50.782;7.152;2022-12-11T03:32:11;1.70;99.90
27409;DHT22;20413;50.782;7.152;2022-12-11T03:34:42;1.60;99.90
27409;DHT22;20413;50.782;7.152;2022-12-11T03:37:10;1.60;99.90
27409;DHT22;20413;50.782;7.152;2022-12-11T03:39:38;1.60;99.90
27409;DHT22;20413;50.782;7.152;2022-12-11T03:42:07;1.70;99.90
27409;DHT22;20413;50.782;7.152;2022-12-11T03:44:35;1.60;99.90
27409;DHT22;20413;50.782;7.152;2022-12-11T03:47:03;1.70;99.90
27409;DHT22;20413;50.782;7.152;2022-12-11T03:49:33;1.60;99.90
27409;DHT22;20413;50.782;7.152;2022-12-11T03:52:02;1.60;99.90
27409;DHT22;20413;50.782;7.152;2022-12-11T03:54:28;1.60;99.90
27409;DHT22;20413;50.782;7.152;2022-12-11T03:56:56;1.60;99.90
27409;DHT22;20413;50.782;7.152;2022-12-11T03:59:23;1.50;99.90
27409;DHT22;20413;50.782;7.152;2022-12-11T04:01:49;1.50;99.90
27409;DHT22;20413;50.782;7.152;2022-12-11T04:04:15;1.60;99.90
27409;DHT22;20413;50.782;7.152;2022-12-11T04:06:40;1.60;99.90
27409;DHT22;20413;50.782;7.152;2022-12-11T04:09:06;1.60;99.90
27409;DHT22;20413;50.782;7.152;2022-12-11T04:11:31;1.60;99.90
27409;DHT22;20413;50.782;7.152;2022-12-11T04:14:06;1.60;99.90
27409;DHT22;20413;50.782;7.152;2022-12-11T04:16:50;1.50;99.90
27409;DHT22;20413;50.782;7.152;2022-12-11T04:19:16;1.60;99.90
27409;DHT22;20413;50.782;7.152;2022-12-11T04:22:00;1.60;99.90
27409;DHT22;20413;50.782;7.152;2022-12-11T04:24:49;1.60;99.90
27409;DHT22;20413;50.782;7.152;2022-12-11T04:27:15;1.60;99.90
27409;DHT22;20413;50.782;7.152;2022-12-11T04:30:03;1.60;99.90
27409;DHT22;20413;50.782;7.152;2022-12-11T04:32:29;1.60;99.90
27409;DHT22;20413;50.782;7.152;2022-12-11T04:34:55;1.60;99.90
27409;DHT22;20413;50.782;7.152;2022-12-11T04:37:20;1.60;99.90
27409;DHT22;20413;50.782;7.152;2022-12-11T04:39:46;1.60;99.90
27409;DHT22;20413;50.782;7.152;2022-12-11T04:42:12;1.60;99.90
27409;DHT22;20413;50.782;7.152;2022-12-11T04:44:37;1.60;99.90
27409;DHT22;20413;50.782;7.152;2022-12-11T04:47:03;1.60;99.90
27409;DHT22;20413;50.782;7.152;2022-12-11T04:49:29;1.60;99.90
27409;DHT22;20413;50.782;7.152;2022-12-11T04:51:54;1.50;99.90
27409;DHT22;20413;50.782;7.152;2022-12-11T04:54:20;1.50;99.90
27409;DHT22;20413;50.782;7.152;2022-12-11T04:56:45;1.60;99.90
27409;DHT22;20413;50.782;7.152;2022-12-11T04:59:11;1.60;99.90
27409;DHT22;20413;50.782;7.152;2022-12-11T05:01:36;1.60;99.90
27409;DHT22;20413;50.782;7.152;2022-12-11T05:04:02;1.60;99.90
27409;DHT22;20413;50.782;7.152;2022-12-11T05:06:27;1.70;99.90
27409;DHT22;20413;50.782;7.152;2022-12-11T05:08:53;1.70;99.90
27409;DHT22;20413;50.782;7.152;2022-12-11T05:11:19;1.60;99.90
27409;DHT22;20413;50.782;7.152;2022-12-11T05:13:44;1.60;99.90
27409;DHT22;20413;50.782;7.152;2022-12-11T05:16:14;1.60;99.90
27409;DHT22;20413;50.782;7.152;2022-12-11T05:18:40;1.60;99.90
27409;DHT22;20413;50.782;7.152;2022-12-11T05:21:08;1.60;99.90
27409;DHT22;20413;50.782;7.152;2022-12-11T05:23:34;1.70;99.90
27409;DHT22;20413;50.782;7.152;2022-12-11T05:26:26;1.60;99.90
27409;DHT22;20413;50.782;7.152;2022-12-11T05:28:53;1.50;99.90
27409;DHT22;20413;50.782;7.152;2022-12-11T05:31:21;1.50;99.90
27409;DHT22;20413;50.782;7.152;2022-12-11T05:33:48;1.40;99.90
27409;DHT22;20413;50.782;7.152;2022-12-11T05:36:23;1.50;99.90
27409;DHT22;20413;50.782;7.152;2022-12-11T05:38:50;1.60;99.90
27409;DHT22;20413;50.782;7.152;2022-12-11T05:41:19;1.60;99.90
27409;DHT22;20413;50.782;7.152;2022-12-11T05:43:44;1.60;99.90
27409;DHT22;20413;50.782;7.152;2022-12-11T05:48:42;1.70;99.90
27409;DHT22;20413;50.782;7.152;2022-12-11T05:51:09;1.70;99.90
27409;DHT22;20413;50.782;7.152;2022-12-11T05:53:35;1.70;99.90
27409;DHT22;20413;50.782;7.152;2022-12-11T05:56:26;1.70;99.90
27409;DHT22;20413;50.782;7.152;2022-12-11T05:58:52;1.70;99.90
27409;DHT22;20413;50.782;7.152;2022-12-11T06:03:45;1.70;99.90
27409;DHT22;20413;50.782;7.152;2022-12-11T06:06:11;1.70;99.90
27409;DHT22;20413;50.782;7.152;2022-12-11T06:08:37;1.70;99.90
27409;DHT22;20413;50.782;7.152;2022-12-11T06:11:04;1.70;99.90
27409;DHT22;20413;50.782;7.152;2022-12-11T06:13:30;1.70;99.90
27409;DHT22;20413;50.782;7.152;2022-12-11T06:15:59;1.70;99.90
27409;DHT22;20413;50.782;7.152;2022-12-11T06:18:25;1.80;99.90
27409;DHT22;20413;50.782;7.152;2022-12-11T06:20:51;1.80;99.90
27409;DHT22;20413;50.782;7.152;2022-12-11T06:23:16;1.90;99.90
27409;DHT22;20413;50.782;7.152;2022-12-11T06:25:42;1.90;99.90
27409;DHT22;20413;50.782;7.152;2022-12-11T06:28:07;1.90;99.90
27409;DHT22;20413;50.782;7.152;2022-12-11T06:30:33;1.80;99.90
27409;DHT22;20413;50.782;7.152;2022-12-11T06:32:58;1.80;99.90
27409;DHT22;20413;50.782;7.152;2022-12-11T06:35:24;1.70;99.90
27409;DHT22;20413;50.782;7.152;2022-12-11T06:37:50;1.60;99.90
27409;DHT22;20413;50.782;7.152;2022-12-11T06:40:16;1.70;99.90
27409;DHT22;20413;50.782;7.152;2022-12-11T06:42:41;1.70;99.90
27409;DHT22;20413;50.782;7.152;2022-12-11T06:45:07;1.80;99.90
27409;DHT22;20413;50.782;7.152;2022-12-11T06:47:33;1.70;99.90
27409;DHT22;20413;50.782;7.152;2022-12-11T06:49:59;1.60;99.90
27409;DHT22;20413;50.782;7.152;2022-12-11T06:52:25;1.60;99.90
27409;DHT22;20413;50.782;7.152;2022-12-11T06:54:54;1.60;99.90
27409;DHT22;20413;50.782;7.152;2022-12-11T06:57:20;1.50;99.90
27409;DHT22;20413;50.782;7.152;2022-12-11T06:59:46;1.60;99.90
27409;DHT22;20413;50.782;7.152;2022-12-11T07:02:16;1.70;99.90
27409;DHT22;20413;50.782;7.152;2022-12-11T07:04:42;1.70;99.90
27409;DHT22;20413;50.782;7.152;2022-12-11T07:07:08;1.70;99.90
27409;DHT22;20413;50.782;7.152;2022-12-11T07:09:34;1.70;99.90
27409;DHT22;20413;50.782;7.152;2022-12-11T07:11:59;1.80;99.90
27409;DHT22;20413;50.782;7.152;2022-12-11T07:14:25;1.70;99.90
27409;DHT22;20413;50.782;7.152;2022-12-11T07:16:51;1.90;99.90
27409;DHT22;20413;50.782;7.152;2022-12-11T07:19:17;1.80;99.90
27409;DHT22;20413;50.782;7.152;2022-12-11T07:21:42;1.70;99.90
27409;DHT22;20413;50.782;7.152;2022-12-11T07:24:08;1.70;99.90
27409;DHT22;20413;50.782;7.152;2022-12-11T07:26:33;1.80;99.90
27409;DHT22;20413;50.782;7.152;2022-12-11T07:28:59;1.80;99.90
27409;DHT22;20413;50.782;7.152;2022-12-11T07:31:26;1.70;99.90
27409;DHT22;20413;50.782;7.152;2022-12-11T07:34:04;1.60;99.90
27409;DHT22;20413;50.782;7.152;2022-12-11T07:36:31;1.70;99.90
27409;DHT22;20413;50.782;7.152;2022-12-11T07:38:58;1.60;99.90
27409;DHT22;20413;50.782;7.152;2022-12-11T07:41:24;1.70;99.90
27409;DHT22;20413;50.782;7.152;2022-12-11T07:43:51;1.80;99.90
27409;DHT22;20413;50.782;7.152;2022-12-11T07:46:20;1.70;99.90
27409;DHT22;20413;50.782;7.152;2022-12-11T07:48:47;1.70;99.90
27409;DHT22;20413;50.782;7.152;2022-12-11T07:53:49;1.80;99.90
27409;DHT22;20413;50.782;7.152;2022-12-11T07:56:16;1.80;99.90
27409;DHT22;20413;50.782;7.152;2022-12-11T07:58:42;1.80;99.90
27409;DHT22;20413;50.782;7.152;2022-12-11T08:01:20;1.60;99.90
27409;DHT22;20413;50.782;7.152;2022-12-11T08:03:46;1.80;99.90
27409;DHT22;20413;50.782;7.152;2022-12-11T08:06:11;1.90;99.90
27409;DHT22;20413;50.782;7.152;2022-12-11T08:08:38;1.90;99.90
27409;DHT22;20413;50.782;7.152;2022-12-11T08:11:05;1.90;99.90
27409;DHT22;20413;50.782;7.152;2022-12-11T08:13:31;1.90;99.90
27409;DHT22;20413;50.782;7.152;2022-12-11T08:15:57;1.80;99.90
27409;DHT22;20413;50.782;7.152;2022-12-11T08:18:23;1.80;99.90
27409;DHT22;20413;50.782;7.152;2022-12-11T08:20:48;1.70;99.90
27409;DHT22;20413;50.782;7.152;2022-12-11T08:23:14;1.70;99.90
27409;DHT22;20413;50.782;7.152;2022-12-11T08:25:40;1.70;99.90
27409;DHT22;20413;50.782;7.152;2022-12-11T08:28:05;1.80;99.90
27409;DHT22;20413;50.782;7.152;2022-12-11T08:32:58;1.80;99.90
27409;DHT22;20413;50.782;7.152;2022-12-11T08:35:24;1.80;99.90
27409;DHT22;20413;50.782;7.152;2022-12-11T08:37:50;1.90;99.90
27409;DHT22;20413;50.782;7.152;2022-12-11T08:40:16;1.90;99.90
27409;DHT22;20413;50.782;7.152;2022-12-11T08:42:41;1.80;99.90
27409;DHT22;20413;50.782;7.152;2022-12-11T08:45:08;1.70;99.90
27409;DHT22;20413;50.782;7.152;2022-12-11T08:47:33;1.80;99.90
27409;DHT22;20413;50.782;7.152;2022-12-11T08:49:59;1.80;99.90
27409;DHT22;20413;50.782;7.152;2022-12-11T08:52:24;1.80;99.90
27409;DHT22;20413;50.782;7.152;2022-12-11T08:54:50;1.80;99.90
27409;DHT22;20413;50.782;7.152;2022-12-11T08:57:15;1.90;99.90
27409;DHT22;20413;50.782;7.152;2022-12-11T08:59:41;1.80;99.90
27409;DHT22;20413;50.782;7.152;2022-12-11T09:02:10;1.90;99.90
27409;DHT22;20413;50.782;7.152;2022-12-11T09:04:36;2.00;99.90
27409;DHT22;20413;50.782;7.152;2022-12-11T09:07:02;2.10;99.90
27409;DHT22;20413;50.782;7.152;2022-12-11T09:09:28;2.10;99.90
27409;DHT22;20413;50.782;7.152;2022-12-11T09:11:53;2.10;99.90
27409;DHT22;20413;50.782;7.152;2022-12-11T09:16:45;2.00;99.90
27409;DHT22;20413;50.782;7.152;2022-12-11T09:19:13;2.00;99.90
27409;DHT22;20413;50.782;7.152;2022-12-11T09:21:39;2.10;99.90
27409;DHT22;20413;50.782;7.152;2022-12-11T09:24:05;2.10;99.90
27409;DHT22;20413;50.782;7.152;2022-12-11T09:26:30;2.10;99.90
27409;DHT22;20413;50.782;7.152;2022-12-11T09:28:57;2.30;99.90
27409;DHT22;20413;50.782;7.152;2022-12-11T09:31:29;2.20;99.90
27409;DHT22;20413;50.782;7.152;2022-12-11T09:33:57;2.20;99.90
27409;DHT22;20413;50.782;7.152;2022-12-11T09:36:23;2.10;99.90
27409;DHT22;20413;50.782;7.152;2022-12-11T09:38:49;2.30;99.90
27409;DHT22;20413;50.782;7.152;2022-12-11T09:46:30;2.40;99.90
27409;DHT22;20413;50.782;7.152;2022-12-11T09:48:57;2.50;99.90
27409;DHT22;20413;50.782;7.152;2022-12-11T09:53:48;2.40;99.90
27409;DHT22;20413;50.782;7.152;2022-12-11T09:56:30;2.40;99.90
27409;DHT22;20413;50.782;7.152;2022-12-11T10:07:11;2.50;99.90
27409;DHT22;20413;50.782;7.152;2022-12-11T10:09:46;2.50;99.90
27409;DHT22;20413;50.782;7.152;2022-12-11T10:12:36;2.40;99.90
27409;DHT22;20413;50.782;7.152;2022-12-11T10:15:25;2.50;99.90
27409;DHT22;20413;50.782;7.152;2022-12-11T10:17:56;2.30;99.90
27409;DHT22;20413;50.782;7.152;2022-12-11T10:20:27;2.60;99.90
27409;DHT22;20413;50.782;7.152;2022-12-11T10:22:56;2.50;99.90
27409;DHT22;20413;50.782;7.152;2022-12-11T10:25:28;2.70;99.90
27409;DHT22;20413;50.782;7.152;2022-12-11T10:27:55;2.80;99.90
27409;DHT22;20413;50.782;7.152;2022-12-11T10:30:25;2.80;99.90
27409;DHT22;20413;50.782;7.152;2022-12-11T10:35:42;2.80;99.90
27409;DHT22;20413;50.782;7.152;2022-12-11T10:38:11;2.80;99.90
27409;DHT22;20413;50.782;7.152;2022-12-11T10:40:40;2.90;99.90
27409;DHT22;20413;50.782;7.152;2022-12-11T10:43:07;2.80;99.90
27409;DHT22;20413;50.782;7.152;2022-12-11T10:45:33;2.70;99.90
27409;DHT22;20413;50.782;7.152;2022-12-11T10:48:08;2.60;99.90
27409;DHT22;20413;50.782;7.152;2022-12-11T10:50:35;2.70;99.90
27409;DHT22;20413;50.782;7.152;2022-12-11T10:53:00;2.80;99.90
27409;DHT22;20413;50.782;7.152;2022-12-11T10:55:39;2.80;99.90
27409;DHT22;20413;50.782;7.152;2022-12-11T10:58:16;3.00;99.90
27409;DHT22;20413;50.782;7.152;2022-12-11T11:00:44;3.20;99.90
27409;DHT22;20413;50.782;7.152;2022-12-11T11:03:25;3.20;99.90
27409;DHT22;20413;50.782;7.152;2022-12-11T11:06:05;3.20;99.90
27409;DHT22;20413;50.782;7.152;2022-12-11T11:08:45;3.50;99.90
27409;DHT22;20413;50.782;7.152;2022-12-11T11:11:35;3.50;99.90
27409;DHT22;20413;50.782;7.152;2022-12-11T11:14:15;3.10;99.90
27409;DHT22;20413;50.782;7.152;2022-12-11T11:16:44;2.90;99.90
27409;DHT22;20413;50.782;7.152;2022-12-11T11:19:31;3.10;99.90
27409;DHT22;20413;50.782;7.152;2022-12-11T11:22:13;3.00;99.90
27409;DHT22;20413;50.782;7.152;2022-12-11T11:24:59;3.20;99.90
27409;DHT22;20413;50.782;7.152;2022-12-11T11:27:29;3.20;99.90
27409;DHT22;20413;50.782;7.152;2022-12-11T11:30:00;3.10;99.90
27409;DHT22;20413;50.782;7.152;2022-12-11T11:32:32;3.10;99.90
27409;DHT22;20413;50.782;7.152;2022-12-11T11:37:36;3.00;99.90
27409;DHT22;20413;50.782;7.152;2022-12-11T11:45:43;3.10;99.90
27409;DHT22;20413;50.782;7.152;2022-12-11T11:50:41;3.40;99.90
27409;DHT22;20413;50.782;7.152;2022-12-11T11:53:18;3.40;99.90
27409;DHT22;20413;50.782;7.152;2022-12-11T11:58:21;3.60;99.90
27409;DHT22;20413;50.782;7.152;2022-12-11T12:00:51;3.50;99.90
27409;DHT22;20413;50.782;7.152;2022-12-11T12:03:18;3.60;99.90
27409;DHT22;20413;50.782;7.152;2022-12-11T12:06:03;3.60;99.90
27409;DHT22;20413;50.782;7.152;2022-12-11T12:08:46;3.60;99.90
27409;DHT22;20413;50.782;7.152;2022-12-11T12:11:39;3.50;99.90
27409;DHT22;20413;50.782;7.152;2022-12-11T12:16:51;3.50;99.90
27409;DHT22;20413;50.782;7.152;2022-12-11T12:22:46;3.40;99.90
27409;DHT22;20413;50.782;7.152;2022-12-11T12:30:15;3.20;99.90
27409;DHT22;20413;50.782;7.152;2022-12-11T12:32:45;3.10;99.90
27409;DHT22;20413;50.782;7.152;2022-12-11T12:38:16;3.10;99.90
27409;DHT22;20413;50.782;7.152;2022-12-11T12:46:38;3.30;99.90
27409;DHT22;20413;50.782;7.152;2022-12-11T12:49:13;3.50;99.90
27409;DHT22;20413;50.782;7.152;2022-12-11T12:51:40;3.50;99.90
27409;DHT22;20413;50.782;7.152;2022-12-11T12:54:13;3.40;99.90
27409;DHT22;20413;50.782;7.152;2022-12-11T12:56:40;3.50;99.90
27409;DHT22;20413;50.782;7.152;2022-12-11T12:59:22;3.50;99.90
27409;DHT22;20413;50.782;7.152;2022-12-11T13:01:54;3.50;99.90
27409;DHT22;20413;50.782;7.152;2022-12-11T13:04:40;3.50;99.90
27409;DHT22;20413;50.782;7.152;2022-12-11T13:07:24;3.50;99.90
27409;DHT22;20413;50.782;7.152;2022-12-11T13:12:49;3.60;99.90
27409;DHT22;20413;50.782;7.152;2022-12-11T13:15:34;3.60;99.90
27409;DHT22;20413;50.782;7.152;2022-12-11T13:18:03;3.60;99.90
27409;DHT22;20413;50.782;7.152;2022-12-11T13:20:33;3.70;99.90
27409;DHT22;20413;50.782;7.152;2022-12-11T13:25:32;3.60;99.90
27409;DHT22;20413;50.782;7.152;2022-12-11T13:31:29;3.60;99.90
27409;DHT22;20413;50.782;7.152;2022-12-11T13:34:20;3.70;99.90
27409;DHT22;20413;50.782;7.152;2022-12-11T13:36:51;3.80;99.90
27409;DHT22;20413;50.782;7.152;2022-12-11T13:39:26;3.70;99.90
27409;DHT22;20413;50.782;7.152;2022-12-11T13:42:00;3.80;99.90
27409;DHT22;20413;50.782;7.152;2022-12-11T13:44:38;3.80;99.90
27409;DHT22;20413;50.782;7.152;2022-12-11T13:47:10;3.70;99.90
27409;DHT22;20413;50.782;7.152;2022-12-11T13:49:41;3.70;99.90
27409;DHT22;20413;50.782;7.152;2022-12-11T13:52:16;3.60;99.90
27409;DHT22;20413;50.782;7.152;2022-12-11T13:54:47;3.50;99.90
27409;DHT22;20413;50.782;7.152;2022-12-11T13:57:22;3.40;99.90
27409;DHT22;20413;50.782;7.152;2022-12-11T13:59:57;3.10;99.90
27409;DHT22;20413;50.782;7.152;2022-12-11T14:02:33;3.10;99.90
27409;DHT22;20413;50.782;7.152;2022-12-11T14:05:05;3.00;99.90
27409;DHT22;20413;50.782;7.152;2022-12-11T14:07:43;3.00;99.90
27409;DHT22;20413;50.782;7.152;2022-12-11T14:10:20;3.10;99.90
27409;DHT22;20413;50.782;7.152;2022-12-11T14:15:24;3.20;99.90
27409;DHT22;20413;50.782;7.152;2022-12-11T14:17:51;3.20;99.90
27409;DHT22;20413;50.782;7.152;2022-12-11T14:20:31;3.20;99.90
27409;DHT22;20413;50.782;7.152;2022-12-11T14:23:27;3.20;99.90
27409;DHT22;20413;50.782;7.152;2022-12-11T14:28:22;3.10;99.90
27409;DHT22;20413;50.782;7.152;2022-12-11T14:30:53;3.00;99.90
27409;DHT22;20413;50.782;7.152;2022-12-11T14:33:20;2.90;99.90
27409;DHT22;20413;50.782;7.152;2022-12-11T14:35:47;2.90;99.90
27409;DHT22;20413;50.782;7.152;2022-12-11T14:38:38;2.90;99.90
27409;DHT22;20413;50.782;7.152;2022-12-11T14:41:22;2.90;99.90
27409;DHT22;20413;50.782;7.152;2022-12-11T14:43:53;2.90;99.90
27409;DHT22;20413;50.782;7.152;2022-12-11T14:46:46;2.90;99.90
27409;DHT22;20413;50.782;7.152;2022-12-11T14:51:51;2.80;99.90
27409;DHT22;20413;50.782;7.152;2022-12-11T14:54:46;2.80;99.90
27409;DHT22;20413;50.782;7.152;2022-12-11T14:57:21;2.90;99.90
27409;DHT22;20413;50.782;7.152;2022-12-11T14:59:48;2.80;99.90
27409;DHT22;20413;50.782;7.152;2022-12-11T15:02:28;2.80;99.90
27409;DHT22;20413;50.782;7.152;2022-12-11T15:05:21;2.80;99.90
27409;DHT22;20413;50.782;7.152;2022-12-11T15:10:40;2.80;99.90
27409;DHT22;20413;50.782;7.152;2022-12-11T15:13:08;2.70;99.90
27409;DHT22;20413;50.782;7.152;2022-12-11T15:15:53;2.70;99.90
27409;DHT22;20413;50.782;7.152;2022-12-11T15:20:51;2.80;99.90
27409;DHT22;20413;50.782;7.152;2022-12-11T15:23:17;2.80;99.90
27409;DHT22;20413;50.782;7.152;2022-12-11T15:25:53;2.80;99.90
27409;DHT22;20413;50.782;7.152;2022-12-11T15:28:34;2.70;99.90
27409;DHT22;20413;50.782;7.152;2022-12-11T15:31:04;2.70;99.90
27409;DHT22;20413;50.782;7.152;2022-12-11T15:33:30;2.70;99.90
27409;DHT22;20413;50.782;7.152;2022-12-11T15:38:34;2.80;99.90
27409;DHT22;20413;50.782;7.152;2022-12-11T15:41:01;2.80;99.90
27409;DHT22;20413;50.782;7.152;2022-12-11T15:43:29;2.80;99.90
27409;DHT22;20413;50.782;7.152;2022-12-11T15:45:56;2.80;99.90
27409;DHT22;20413;50.782;7.152;2022-12-11T15:48:22;2.70;99.90
27409;DHT22;20413;50.782;7.152;2022-12-11T15:50:47;2.70;99.90
27409;DHT22;20413;50.782;7.152;2022-12-11T15:53:13;2.70;99.90
27409;DHT22;20413;50.782;7.152;2022-12-11T15:55:38;2.70;99.90
27409;DHT22;20413;50.782;7.152;2022-12-11T15:58:07;2.60;99.90
27409;DHT22;20413;50.782;7.152;2022-12-11T16:00:34;2.70;99.90
27409;DHT22;20413;50.782;7.152;2022-12-11T16:02:59;2.70;99.90
27409;DHT22;20413;50.782;7.152;2022-12-11T16:05:25;2.70;99.90
27409;DHT22;20413;50.782;7.152;2022-12-11T16:07:51;2.70;99.90
27409;DHT22;20413;50.782;7.152;2022-12-11T16:10:19;2.60;99.90
27409;DHT22;20413;50.782;7.152;2022-12-11T16:12:45;2.60;99.90
27409;DHT22;20413;50.782;7.152;2022-12-11T16:15:13;2.60;99.90
27409;DHT22;20413;50.782;7.152;2022-12-11T16:17:39;2.50;99.90
27409;DHT22;20413;50.782;7.152;2022-12-11T16:20:06;2.60;99.90
27409;DHT22;20413;50.782;7.152;2022-12-11T16:22:32;2.60;99.90
27409;DHT22;20413;50.782;7.152;2022-12-11T16:24:58;2.60;99.90
27409;DHT22;20413;50.782;7.152;2022-12-11T16:27:23;2.50;99.90
27409;DHT22;20413;50.782;7.152;2022-12-11T16:29:50;2.50;99.90
27409;DHT22;20413;50.782;7.152;2022-12-11T16:32:15;2.40;99.90
27409;DHT22;20413;50.782;7.152;2022-12-11T16:34:41;2.40;99.90
27409;DHT22;20413;50.782;7.152;2022-12-11T16:37:08;2.40;99.90
27409;DHT22;20413;50.782;7.152;2022-12-11T16:39:34;2.50;99.90
27409;DHT22;20413;50.782;7.152;2022-12-11T16:42:01;2.50;99.90
27409;DHT22;20413;50.782;7.152;2022-12-11T16:44:27;2.40;99.90
27409;DHT22;20413;50.782;7.152;2022-12-11T16:46:53;2.40;99.90
27409;DHT22;20413;50.782;7.152;2022-12-11T16:49:19;2.30;99.90
27409;DHT22;20413;50.782;7.152;2022-12-11T16:51:45;2.40;99.90
27409;DHT22;20413;50.782;7.152;2022-12-11T16:54:10;2.20;99.90
27409;DHT22;20413;50.782;7.152;2022-12-11T16:56:36;2.10;99.90
27409;DHT22;20413;50.782;7.152;2022-12-11T16:59:03;2.10;99.90
27409;DHT22;20413;50.782;7.152;2022-12-11T17:01:29;2.30;99.90
27409;DHT22;20413;50.782;7.152;2022-12-11T17:03:54;2.30;99.90
27409;DHT22;20413;50.782;7.152;2022-12-11T17:06:20;2.30;99.90
27409;DHT22;20413;50.782;7.152;2022-12-11T17:08:46;2.30;99.90
27409;DHT22;20413;50.782;7.152;2022-12-11T17:11:14;2.30;99.90
27409;DHT22;20413;50.782;7.152;2022-12-11T17:13:40;2.30;99.90
27409;DHT22;20413;50.782;7.152;2022-12-11T17:16:11;2.20;99.90
27409;DHT22;20413;50.782;7.152;2022-12-11T17:18:38;2.20;99.90
27409;DHT22;20413;50.782;7.152;2022-12-11T17:21:05;2.10;99.90
27409;DHT22;20413;50.782;7.152;2022-12-11T17:23:31;2.10;99.90
27409;DHT22;20413;50.782;7.152;2022-12-11T17:25:57;2.10;99.90
27409;DHT22;20413;50.782;7.152;2022-12-11T17:28:22;2.20;99.90
27409;DHT22;20413;50.782;7.152;2022-12-11T17:30:48;2.20;99.90
27409;DHT22;20413;50.782;7.152;2022-12-11T17:33:14;2.30;99.90
27409;DHT22;20413;50.782;7.152;2022-12-11T17:35:40;2.30;99.90
27409;DHT22;20413;50.782;7.152;2022-12-11T17:38:06;2.40;99.90
27409;DHT22;20413;50.782;7.152;2022-12-11T17:40:32;2.40;99.90
27409;DHT22;20413;50.782;7.152;2022-12-11T17:42:58;2.20;99.90
27409;DHT22;20413;50.782;7.152;2022-12-11T17:45:23;2.20;99.90